sensor_id;sensor_type;location;lat;lon;timestamp;pressure;altitude;pressure_sealevel;temperature;humidity
35676;BME280;21790;42.668;23.298;2023-09-19T00:01:24;95061.22;;;23.88;41.23
35676;BME280;21790;42.668;23.298;2023-09-19T00:03:50;95064.59;;;23.87;41.21
35676;BME280;21790;42.668;23.298;2023-09-19T00:06:15;95065.53;;;23.76;41.12
35676;BME280;21790;42.668;23.298;2023-09-19T00:08:41;95074.19;;;23.65;41.55
35676;BME280;21790;42.668;23.298;2023-09-19T00:11:10;95076.25;;;23.64;41.52
35676;BME280;21790;42.668;23.298;2023-09-19T00:13:36;95075.16;;;23.54;42.43
35676;BME280;21790;42.668;23.298;2023-09-19T00:16:08;95077.66;;;23.58;42.46
35676;BME280;21790;42.668;23.298;2023-09-19T00:18:34;95067.47;;;23.36;42.94
35676;BME280;21790;42.668;23.298;2023-09-19T00:21:03;95076.09;;;23.25;42.96
35676;BME280;21790;42.668;23.298;2023-09-19T00:23:32;95058.66;;;23.26;43.19
35676;BME280;21790;42.668;23.298;2023-09-19T00:26:01;95052.34;;;23.20;43.29
35676;BME280;21790;42.668;23.298;2023-09-19T00:28:27;95050.28;;;23.21;43.48
35676;BME280;21790;42.668;23.298;2023-09-19T00:30:52;95059.66;;;23.10;43.85
35676;BME280;21790;42.668;23.298;2023-09-19T00:33:21;95064.53;;;23.10;43.87
35676;BME280;21790;42.668;23.298;2023-09-19T00:35:54;95056.94;;;23.05;44.14
35676;BME280;21790;42.668;23.298;2023-09-19T00:38:21;95049.84;;;22.98;44.09
35676;BME280;21790;42.668;23.298;2023-09-19T00:40:52;95036.34;;;23.10;43.77
35676;BME280;21790;42.668;23.298;2023-09-19T00:43:18;95040.44;;;23.27;43.39
35676;BME280;21790;42.668;23.298;2023-09-19T00:45:45;95057.78;;;23.18;43.87
35676;BME280;21790;42.668;23.298;2023-09-19T00:48:13;95045.81;;;23.12;43.84
35676;BME280;21790;42.668;23.298;2023-09-19T00:50:41;95051.47;;;22.93;44.60
35676;BME280;21790;42.668;23.298;2023-09-19T00:53:08;95052.84;;;22.87;44.82
35676;BME280;21790;42.668;23.298;2023-09-19T00:55:38;95055.28;;;22.96;44.71
35676;BME280;21790;42.668;23.298;2023-09-19T00:58:06;95039.44;;;22.93;44.41
35676;BME280;21790;42.668;23.298;2023-09-19T01:00:33;95048.72;;;22.88;44.44
35676;BME280;21790;42.668;23.298;2023-09-19T01:02:59;95053.47;;;22.80;44.94
35676;BME280;21790;42.668;23.298;2023-09-19T01:05:27;95055.88;;;22.89;44.63
35676;BME280;21790;42.668;23.298;2023-09-19T01:07:53;95043.59;;;22.68;44.99
35676;BME280;21790;42.668;23.298;2023-09-19T01:10:20;95050.16;;;22.76;44.54
35676;BME280;21790;42.668;23.298;2023-09-19T01:13:17;95046.44;;;22.86;44.53
35676;BME280;21790;42.668;23.298;2023-09-19T01:18:52;95050.34;;;22.83;44.23
35676;BME280;21790;42.668;23.298;2023-09-19T01:21:54;95051.53;;;22.69;44.80
35676;BME280;21790;42.668;23.298;2023-09-19T01:29:45;95052.50;;;22.53;45.37
35676;BME280;21790;42.668;23.298;2023-09-19T01:32:13;95056.38;;;22.50;45.58
35676;BME280;21790;42.668;23.298;2023-09-19T01:34:43;95051.13;;;22.41;45.76
35676;BME280;21790;42.668;23.298;2023-09-19T01:37:10;95051.06;;;22.46;45.51
35676;BME280;21790;42.668;23.298;2023-09-19T01:39:35;95051.50;;;22.32;45.92
35676;BME280;21790;42.668;23.298;2023-09-19T01:42:17;95052.72;;;22.36;45.82
35676;BME280;21790;42.668;23.298;2023-09-19T01:52:39;95050.13;;;22.20;46.65
35676;BME280;21790;42.668;23.298;2023-09-19T01:55:09;95048.47;;;22.30;46.34
35676;BME280;21790;42.668;23.298;2023-09-19T01:57:51;95053.41;;;22.42;45.80
35676;BME280;21790;42.668;23.298;2023-09-19T02:00:21;95057.34;;;22.34;45.95
35676;BME280;21790;42.668;23.298;2023-09-19T02:02:49;95057.03;;;22.19;46.38
35676;BME280;21790;42.668;23.298;2023-09-19T02:05:23;95057.72;;;22.25;46.21
35676;BME280;21790;42.668;23.298;2023-09-19T02:07:49;95058.69;;;22.08;46.47
35676;BME280;21790;42.668;23.298;2023-09-19T02:10:15;95056.41;;;22.26;46.17
35676;BME280;21790;42.668;23.298;2023-09-19T02:12:42;95059.91;;;22.13;46.46
35676;BME280;21790;42.668;23.298;2023-09-19T02:15:08;95048.53;;;22.00;46.85
35676;BME280;21790;42.668;23.298;2023-09-19T02:17:34;95058.03;;;21.97;46.73
35676;BME280;21790;42.668;23.298;2023-09-19T02:19:59;95055.22;;;21.97;47.03
35676;BME280;21790;42.668;23.298;2023-09-19T02:22:26;95058.56;;;21.95;47.07
35676;BME280;21790;42.668;23.298;2023-09-19T02:24:52;95051.16;;;21.92;46.85
35676;BME280;21790;42.668;23.298;2023-09-19T02:27:19;95050.03;;;21.77;47.27
35676;BME280;21790;42.668;23.298;2023-09-19T02:29:44;95040.91;;;21.70;47.56
35676;BME280;21790;42.668;23.298;2023-09-19T02:32:10;95040.78;;;21.82;47.31
35676;BME280;21790;42.668;23.298;2023-09-19T02:34:36;95037.91;;;21.87;47.38
35676;BME280;21790;42.668;23.298;2023-09-19T02:37:03;95042.22;;;21.88;46.99
35676;BME280;21790;42.668;23.298;2023-09-19T02:39:30;95036.97;;;21.79;46.75
35676;BME280;21790;42.668;23.298;2023-09-19T02:41:56;95044.59;;;21.84;47.04
35676;BME280;21790;42.668;23.298;2023-09-19T02:44:22;95029.22;;;21.61;47.33
35676;BME280;21790;42.668;23.298;2023-09-19T02:46:49;95033.91;;;21.53;47.77
35676;BME280;21790;42.668;23.298;2023-09-19T02:49:15;95029.41;;;21.68;46.98
35676;BME280;21790;42.668;23.298;2023-09-19T02:51:40;95021.72;;;21.69;46.83
35676;BME280;21790;42.668;23.298;2023-09-19T02:54:06;95016.09;;;21.69;46.47
35676;BME280;21790;42.668;23.298;2023-09-19T02:56:32;95034.63;;;21.59;46.89
35676;BME280;21790;42.668;23.298;2023-09-19T02:58:58;95026.91;;;21.65;46.79
35676;BME280;21790;42.668;23.298;2023-09-19T03:01:26;95021.84;;;21.58;46.98
35676;BME280;21790;42.668;23.298;2023-09-19T03:03:54;95019.22;;;21.65;47.01
35676;BME280;21790;42.668;23.298;2023-09-19T03:06:20;95008.09;;;21.54;46.91
35676;BME280;21790;42.668;23.298;2023-09-19T03:08:47;95006.97;;;21.63;46.66
35676;BME280;21790;42.668;23.298;2023-09-19T03:11:14;95007.84;;;21.52;46.89
35676;BME280;21790;42.668;23.298;2023-09-19T03:13:41;94998.22;;;21.66;46.65
35676;BME280;21790;42.668;23.298;2023-09-19T03:16:08;95012.13;;;21.59;46.99
35676;BME280;21790;42.668;23.298;2023-09-19T03:18:36;95011.63;;;21.55;46.87
35676;BME280;21790;42.668;23.298;2023-09-19T03:21:02;95009.41;;;21.48;47.14
35676;BME280;21790;42.668;23.298;2023-09-19T03:23:28;95001.31;;;21.39;47.43
35676;BME280;21790;42.668;23.298;2023-09-19T03:25:57;95017.38;;;21.44;47.45
35676;BME280;21790;42.668;23.298;2023-09-19T03:28:24;95010.94;;;21.49;47.14
35676;BME280;21790;42.668;23.298;2023-09-19T03:31:05;95002.13;;;21.82;46.89
35676;BME280;21790;42.668;23.298;2023-09-19T03:33:31;95003.97;;;21.80;46.56
35676;BME280;21790;42.668;23.298;2023-09-19T03:35:58;95014.91;;;21.83;46.70
35676;BME280;21790;42.668;23.298;2023-09-19T03:38:25;95007.31;;;21.78;46.79
35676;BME280;21790;42.668;23.298;2023-09-19T03:40:51;95020.44;;;21.70;46.91
35676;BME280;21790;42.668;23.298;2023-09-19T03:43:16;95017.34;;;21.74;46.90
35676;BME280;21790;42.668;23.298;2023-09-19T03:45:42;95019.91;;;21.71;46.91
35676;BME280;21790;42.668;23.298;2023-09-19T03:48:09;95014.47;;;21.79;46.72
35676;BME280;21790;42.668;23.298;2023-09-19T03:50:35;95025.53;;;21.71;47.10
35676;BME280;21790;42.668;23.298;2023-09-19T03:53:01;95027.88;;;21.67;46.86
35676;BME280;21790;42.668;23.298;2023-09-19T03:55:27;95035.56;;;21.67;47.08
35676;BME280;21790;42.668;23.298;2023-09-19T03:57:53;95035.13;;;21.57;47.33
35676;BME280;21790;42.668;23.298;2023-09-19T04:00:19;95038.72;;;21.58;47.13
35676;BME280;21790;42.668;23.298;2023-09-19T04:02:48;95033.53;;;21.38;47.77
35676;BME280;21790;42.668;23.298;2023-09-19T04:05:13;95024.09;;;21.35;48.03
35676;BME280;21790;42.668;23.298;2023-09-19T04:07:39;95034.88;;;21.31;48.00
35676;BME280;21790;42.668;23.298;2023-09-19T04:10:05;95035.47;;;21.18;48.07
35676;BME280;21790;42.668;23.298;2023-09-19T04:12:31;95045.59;;;21.33;48.31
35676;BME280;21790;42.668;23.298;2023-09-19T04:14:57;95054.03;;;21.33;48.28
35676;BME280;21790;42.668;23.298;2023-09-19T04:17:23;95042.44;;;21.42;48.01
35676;BME280;21790;42.668;23.298;2023-09-19T04:19:48;95047.00;;;21.45;48.04
35676;BME280;21790;42.668;23.298;2023-09-19T04:22:14;95050.06;;;21.47;48.13
35676;BME280;21790;42.668;23.298;2023-09-19T04:24:39;95038.09;;;21.41;48.12
35676;BME280;21790;42.668;23.298;2023-09-19T04:27:05;95040.34;;;21.48;48.02
35676;BME280;21790;42.668;23.298;2023-09-19T04:29:31;95032.53;;;21.65;47.45
35676;BME280;21790;42.668;23.298;2023-09-19T04:31:57;95028.41;;;21.66;47.54
35676;BME280;21790;42.668;23.298;2023-09-19T04:34:22;95025.81;;;21.68;47.79
35676;BME280;21790;42.668;23.298;2023-09-19T04:36:49;95036.66;;;21.83;47.35
35676;BME280;21790;42.668;23.298;2023-09-19T04:39:15;95031.53;;;21.87;47.26
35676;BME280;21790;42.668;23.298;2023-09-19T04:41:42;95025.03;;;21.97;47.38
35676;BME280;21790;42.668;23.298;2023-09-19T04:44:07;95029.53;;;22.06;46.75
35676;BME280;21790;42.668;23.298;2023-09-19T04:46:34;95029.41;;;22.17;46.30
35676;BME280;21790;42.668;23.298;2023-09-19T04:49:00;95029.84;;;22.02;46.38
35676;BME280;21790;42.668;23.298;2023-09-19T04:51:26;95032.81;;;22.10;46.08
35676;BME280;21790;42.668;23.298;2023-09-19T04:53:54;95017.22;;;22.09;46.00
35676;BME280;21790;42.668;23.298;2023-09-19T04:56:20;95024.38;;;22.10;46.13
35676;BME280;21790;42.668;23.298;2023-09-19T04:58:46;95021.75;;;22.36;45.71
35676;BME280;21790;42.668;23.298;2023-09-19T05:01:11;95012.84;;;22.51;45.50
35676;BME280;21790;42.668;23.298;2023-09-19T05:03:39;95023.28;;;22.56;45.55
35676;BME280;21790;42.668;23.298;2023-09-19T05:06:05;95021.34;;;22.64;45.23
35676;BME280;21790;42.668;23.298;2023-09-19T05:08:30;95019.50;;;22.72;45.18
35676;BME280;21790;42.668;23.298;2023-09-19T05:10:56;95025.13;;;22.91;44.94
35676;BME280;21790;42.668;23.298;2023-09-19T05:13:22;95025.59;;;23.08;44.77
35676;BME280;21790;42.668;23.298;2023-09-19T05:15:52;95022.84;;;23.21;44.55
35676;BME280;21790;42.668;23.298;2023-09-19T05:18:18;95028.66;;;23.42;44.31
35676;BME280;21790;42.668;23.298;2023-09-19T05:20:43;95018.97;;;23.56;44.01
35676;BME280;21790;42.668;23.298;2023-09-19T05:23:09;95016.56;;;23.73;43.71
35676;BME280;21790;42.668;23.298;2023-09-19T05:25:37;95017.25;;;23.80;43.36
35676;BME280;21790;42.668;23.298;2023-09-19T05:28:08;95018.34;;;23.76;43.46
35676;BME280;21790;42.668;23.298;2023-09-19T05:30:37;95010.63;;;23.90;43.13
35676;BME280;21790;42.668;23.298;2023-09-19T05:33:04;95007.16;;;23.84;43.19
35676;BME280;21790;42.668;23.298;2023-09-19T05:35:30;95013.66;;;23.66;43.19
35676;BME280;21790;42.668;23.298;2023-09-19T05:37:56;95013.31;;;23.69;43.72
35676;BME280;21790;42.668;23.298;2023-09-19T05:40:23;95012.69;;;23.76;43.29
35676;BME280;21790;42.668;23.298;2023-09-19T05:42:49;95008.69;;;23.72;43.55
35676;BME280;21790;42.668;23.298;2023-09-19T05:45:16;95000.50;;;23.55;43.94
35676;BME280;21790;42.668;23.298;2023-09-19T05:47:50;95001.28;;;23.69;43.72
35676;BME280;21790;42.668;23.298;2023-09-19T05:50:16;95001.06;;;23.80;43.14
35676;BME280;21790;42.668;23.298;2023-09-19T05:52:42;95003.03;;;23.85;43.04
35676;BME280;21790;42.668;23.298;2023-09-19T05:55:13;95001.63;;;23.92;42.85
35676;BME280;21790;42.668;23.298;2023-09-19T05:57:39;95010.75;;;23.98;43.03
35676;BME280;21790;42.668;23.298;2023-09-19T06:00:06;95004.13;;;24.08;43.02
35676;BME280;21790;42.668;23.298;2023-09-19T06:02:36;95001.09;;;24.20;42.71
35676;BME280;21790;42.668;23.298;2023-09-19T06:05:04;94986.97;;;24.20;42.17
35676;BME280;21790;42.668;23.298;2023-09-19T06:07:32;94992.75;;;24.27;42.14
35676;BME280;21790;42.668;23.298;2023-09-19T06:10:05;94988.47;;;24.07;42.57
35676;BME280;21790;42.668;23.298;2023-09-19T06:12:31;94996.50;;;23.51;43.71
35676;BME280;21790;42.668;23.298;2023-09-19T06:15:03;94991.38;;;23.62;43.79
35676;BME280;21790;42.668;23.298;2023-09-19T06:17:31;95000.50;;;23.68;43.66
35676;BME280;21790;42.668;23.298;2023-09-19T06:19:56;94996.16;;;23.54;43.91
35676;BME280;21790;42.668;23.298;2023-09-19T06:22:22;94995.31;;;23.72;43.59
35676;BME280;21790;42.668;23.298;2023-09-19T06:24:47;94987.06;;;23.74;43.54
35676;BME280;21790;42.668;23.298;2023-09-19T06:27:13;94980.31;;;23.64;43.82
35676;BME280;21790;42.668;23.298;2023-09-19T06:29:39;94973.34;;;23.39;44.09
35676;BME280;21790;42.668;23.298;2023-09-19T06:32:08;94980.34;;;23.91;43.73
35676;BME280;21790;42.668;23.298;2023-09-19T06:34:34;94973.16;;;24.03;43.23
35676;BME280;21790;42.668;23.298;2023-09-19T06:37:00;94983.25;;;23.85;43.53
35676;BME280;21790;42.668;23.298;2023-09-19T06:39:25;94977.97;;;24.21;43.24
35676;BME280;21790;42.668;23.298;2023-09-19T06:41:52;94984.03;;;24.38;42.63
35676;BME280;21790;42.668;23.298;2023-09-19T06:44:20;94988.78;;;24.77;42.07
35676;BME280;21790;42.668;23.298;2023-09-19T06:46:50;94990.06;;;24.55;42.73
35676;BME280;21790;42.668;23.298;2023-09-19T06:49:17;94987.69;;;24.59;42.71
35676;BME280;21790;42.668;23.298;2023-09-19T06:51:42;94983.72;;;24.76;42.11
35676;BME280;21790;42.668;23.298;2023-09-19T06:54:10;94985.69;;;25.02;41.50
35676;BME280;21790;42.668;23.298;2023-09-19T06:56:35;94989.91;;;25.08;40.72
35676;BME280;21790;42.668;23.298;2023-09-19T06:59:01;94990.53;;;25.14;40.87
35676;BME280;21790;42.668;23.298;2023-09-19T07:01:28;94993.16;;;25.33;40.99
35676;BME280;21790;42.668;23.298;2023-09-19T07:03:54;94987.75;;;25.42;40.66
35676;BME280;21790;42.668;23.298;2023-09-19T07:06:20;94987.91;;;25.37;40.34
35676;BME280;21790;42.668;23.298;2023-09-19T07:08:45;94994.31;;;25.17;40.76
35676;BME280;21790;42.668;23.298;2023-09-19T07:11:11;95002.03;;;25.16;40.81
35676;BME280;21790;42.668;23.298;2023-09-19T07:13:39;94991.22;;;25.28;40.81
35676;BME280;21790;42.668;23.298;2023-09-19T07:16:04;94986.25;;;25.21;40.71
35676;BME280;21790;42.668;23.298;2023-09-19T07:18:30;94995.97;;;25.33;40.62
35676;BME280;21790;42.668;23.298;2023-09-19T07:20:58;95002.41;;;25.33;40.33
35676;BME280;21790;42.668;23.298;2023-09-19T07:23:30;95007.84;;;25.31;40.73
35676;BME280;21790;42.668;23.298;2023-09-19T07:26:03;94997.16;;;25.37;40.61
35676;BME280;21790;42.668;23.298;2023-09-19T07:28:31;94995.56;;;25.29;40.77
35676;BME280;21790;42.668;23.298;2023-09-19T07:30:56;94991.31;;;25.35;40.31
35676;BME280;21790;42.668;23.298;2023-09-19T07:33:22;94989.50;;;25.46;40.06
35676;BME280;21790;42.668;23.298;2023-09-19T07:35:50;94995.97;;;25.54;40.37
35676;BME280;21790;42.668;23.298;2023-09-19T07:38:15;94986.59;;;25.59;40.20
35676;BME280;21790;42.668;23.298;2023-09-19T07:40:42;94984.19;;;25.63;39.81
35676;BME280;21790;42.668;23.298;2023-09-19T07:43:09;94987.34;;;25.59;40.26
35676;BME280;21790;42.668;23.298;2023-09-19T07:45:35;94995.56;;;25.70;39.79
35676;BME280;21790;42.668;23.298;2023-09-19T07:48:01;94999.38;;;25.73;40.01
35676;BME280;21790;42.668;23.298;2023-09-19T07:50:29;94994.03;;;25.69;39.84
35676;BME280;21790;42.668;23.298;2023-09-19T07:52:55;94993.88;;;25.75;40.13
35676;BME280;21790;42.668;23.298;2023-09-19T07:55:22;95006.03;;;25.83;39.80
35676;BME280;21790;42.668;23.298;2023-09-19T07:57:54;95001.94;;;25.92;39.61
35676;BME280;21790;42.668;23.298;2023-09-19T08:00:20;95005.06;;;25.80;39.61
35676;BME280;21790;42.668;23.298;2023-09-19T08:02:45;95007.44;;;25.97;39.61
35676;BME280;21790;42.668;23.298;2023-09-19T08:05:12;95003.16;;;26.04;39.61
35676;BME280;21790;42.668;23.298;2023-09-19T08:07:42;94996.72;;;26.03;40.15
35676;BME280;21790;42.668;23.298;2023-09-19T08:10:09;94982.78;;;26.05;39.68
35676;BME280;21790;42.668;23.298;2023-09-19T08:12:43;94986.88;;;25.97;39.76
35676;BME280;21790;42.668;23.298;2023-09-19T08:15:16;94985.09;;;25.58;40.40
35676;BME280;21790;42.668;23.298;2023-09-19T08:17:42;94976.91;;;25.75;40.14
35676;BME280;21790;42.668;23.298;2023-09-19T08:20:09;94976.88;;;25.26;40.70
35676;BME280;21790;42.668;23.298;2023-09-19T08:22:43;94973.97;;;25.60;40.46
35676;BME280;21790;42.668;23.298;2023-09-19T08:25:09;94967.09;;;25.76;40.13
35676;BME280;21790;42.668;23.298;2023-09-19T08:27:35;94967.31;;;25.78;40.44
35676;BME280;21790;42.668;23.298;2023-09-19T08:30:01;94971.09;;;25.80;40.10
35676;BME280;21790;42.668;23.298;2023-09-19T08:32:28;94974.50;;;26.07;40.10
35676;BME280;21790;42.668;23.298;2023-09-19T08:34:54;94973.47;;;26.26;39.93
35676;BME280;21790;42.668;23.298;2023-09-19T08:37:19;94979.25;;;26.48;39.71
35676;BME280;21790;42.668;23.298;2023-09-19T08:39:45;94979.31;;;26.63;39.64
35676;BME280;21790;42.668;23.298;2023-09-19T08:42:11;94981.97;;;26.69;39.27
35676;BME280;21790;42.668;23.298;2023-09-19T08:44:38;94985.19;;;26.73;39.54
35676;BME280;21790;42.668;23.298;2023-09-19T08:47:16;94970.53;;;26.39;39.20
35676;BME280;21790;42.668;23.298;2023-09-19T08:50:01;94961.84;;;26.44;39.54
35676;BME280;21790;42.668;23.298;2023-09-19T08:52:37;94965.50;;;26.67;39.52
35676;BME280;21790;42.668;23.298;2023-09-19T08:55:07;94968.00;;;26.71;38.70
35676;BME280;21790;42.668;23.298;2023-09-19T08:57:36;94967.28;;;26.78;38.64
35676;BME280;21790;42.668;23.298;2023-09-19T09:00:22;94960.84;;;26.85;38.34
35676;BME280;21790;42.668;23.298;2023-09-19T09:02:49;94956.75;;;26.94;38.80
35676;BME280;21790;42.668;23.298;2023-09-19T09:05:15;94957.88;;;26.98;38.59
35676;BME280;21790;42.668;23.298;2023-09-19T09:07:49;94959.44;;;26.56;38.59
35676;BME280;21790;42.668;23.298;2023-09-19T09:10:18;94956.28;;;26.67;38.88
35676;BME280;21790;42.668;23.298;2023-09-19T09:12:47;94964.03;;;26.74;38.99
35676;BME280;21790;42.668;23.298;2023-09-19T09:15:12;94955.94;;;26.78;39.12
35676;BME280;21790;42.668;23.298;2023-09-19T09:17:41;94944.59;;;26.78;38.14
35676;BME280;21790;42.668;23.298;2023-09-19T09:20:08;94948.75;;;26.77;38.56
35676;BME280;21790;42.668;23.298;2023-09-19T09:22:35;94945.91;;;26.85;38.52
35676;BME280;21790;42.668;23.298;2023-09-19T09:25:01;94943.28;;;26.87;38.61
35676;BME280;21790;42.668;23.298;2023-09-19T09:27:29;94937.81;;;26.96;38.88
35676;BME280;21790;42.668;23.298;2023-09-19T09:29:56;94935.94;;;27.06;38.80
35676;BME280;21790;42.668;23.298;2023-09-19T09:32:29;94939.38;;;27.13;37.56
35676;BME280;21790;42.668;23.298;2023-09-19T09:34:59;94937.84;;;26.89;38.04
35676;BME280;21790;42.668;23.298;2023-09-19T09:37:25;94932.53;;;27.00;38.48
35676;BME280;21790;42.668;23.298;2023-09-19T09:47:41;94920.50;;;27.53;37.55
35676;BME280;21790;42.668;23.298;2023-09-19T09:50:08;94909.09;;;27.68;37.48
35676;BME280;21790;42.668;23.298;2023-09-19T09:52:46;94909.66;;;27.29;37.88
35676;BME280;21790;42.668;23.298;2023-09-19T09:55:12;94899.84;;;27.15;38.13
35676;BME280;21790;42.668;23.298;2023-09-19T09:57:40;94907.97;;;27.33;37.93
35676;BME280;21790;42.668;23.298;2023-09-19T10:00:07;94909.13;;;27.53;37.67
35676;BME280;21790;42.668;23.298;2023-09-19T10:02:55;94903.06;;;27.64;37.54
35676;BME280;21790;42.668;23.298;2023-09-19T10:05:21;94907.59;;;27.75;37.35
35676;BME280;21790;42.668;23.298;2023-09-19T10:08:11;94905.50;;;27.75;37.59
35676;BME280;21790;42.668;23.298;2023-09-19T10:10:39;94905.50;;;27.68;37.27
35676;BME280;21790;42.668;23.298;2023-09-19T10:13:11;94903.44;;;27.76;36.75
35676;BME280;21790;42.668;23.298;2023-09-19T10:15:42;94896.22;;;27.75;37.13
35676;BME280;21790;42.668;23.298;2023-09-19T10:18:14;94900.97;;;27.65;37.02
35676;BME280;21790;42.668;23.298;2023-09-19T10:20:44;94907.59;;;27.67;36.99
35676;BME280;21790;42.668;23.298;2023-09-19T10:23:12;94896.59;;;27.71;36.85
35676;BME280;21790;42.668;23.298;2023-09-19T10:25:43;94900.38;;;27.74;36.78
35676;BME280;21790;42.668;23.298;2023-09-19T10:28:11;94900.94;;;27.80;36.77
35676;BME280;21790;42.668;23.298;2023-09-19T10:30:42;94899.63;;;27.81;37.01
35676;BME280;21790;42.668;23.298;2023-09-19T10:33:18;94900.38;;;27.81;37.33
35676;BME280;21790;42.668;23.298;2023-09-19T10:35:47;94885.44;;;27.81;36.98
35676;BME280;21790;42.668;23.298;2023-09-19T10:38:18;94891.66;;;27.87;37.02
35676;BME280;21790;42.668;23.298;2023-09-19T10:40:54;94889.38;;;27.85;36.58
35676;BME280;21790;42.668;23.298;2023-09-19T10:43:20;94894.88;;;27.83;36.97
35676;BME280;21790;42.668;23.298;2023-09-19T10:45:49;94885.44;;;27.81;37.15
35676;BME280;21790;42.668;23.298;2023-09-19T10:48:18;94891.81;;;27.89;36.53
35676;BME280;21790;42.668;23.298;2023-09-19T10:53:26;94877.31;;;27.62;36.99
35676;BME280;21790;42.668;23.298;2023-09-19T10:55:57;94872.75;;;27.74;36.73
35676;BME280;21790;42.668;23.298;2023-09-19T10:58:29;94878.03;;;27.85;36.68
35676;BME280;21790;42.668;23.298;2023-09-19T11:00:59;94874.41;;;27.93;36.16
35676;BME280;21790;42.668;23.298;2023-09-19T11:03:32;94872.00;;;27.74;36.68
35676;BME280;21790;42.668;23.298;2023-09-19T11:09:03;94873.44;;;27.98;36.69
35676;BME280;21790;42.668;23.298;2023-09-19T11:11:47;94876.09;;;27.96;36.64
35676;BME280;21790;42.668;23.298;2023-09-19T11:30:44;94854.47;;;28.08;36.61
35676;BME280;21790;42.668;23.298;2023-09-19T11:33:20;94846.44;;;28.29;36.61
35676;BME280;21790;42.668;23.298;2023-09-19T11:36:09;94844.16;;;28.35;36.93
35676;BME280;21790;42.668;23.298;2023-09-19T11:41:41;94831.16;;;28.49;36.60
35676;BME280;21790;42.668;23.298;2023-09-19T11:49:18;94810.13;;;28.20;36.90
35676;BME280;21790;42.668;23.298;2023-09-19T11:51:52;94812.97;;;28.20;36.75
35676;BME280;21790;42.668;23.298;2023-09-19T11:54:19;94808.19;;;28.22;36.80
35676;BME280;21790;42.668;23.298;2023-09-19T11:56:52;94808.56;;;28.26;36.54
35676;BME280;21790;42.668;23.298;2023-09-19T11:59:22;94805.56;;;28.17;36.82
35676;BME280;21790;42.668;23.298;2023-09-19T12:01:56;94822.97;;;28.21;37.14
35676;BME280;21790;42.668;23.298;2023-09-19T12:04:41;94809.16;;;28.25;36.46
35676;BME280;21790;42.668;23.298;2023-09-19T12:07:12;94806.75;;;28.14;36.37
35676;BME280;21790;42.668;23.298;2023-09-19T12:10:04;94800.41;;;28.31;36.06
35676;BME280;21790;42.668;23.298;2023-09-19T12:12:30;94787.44;;;28.37;35.58
35676;BME280;21790;42.668;23.298;2023-09-19T12:14:58;94789.16;;;28.40;35.38
35676;BME280;21790;42.668;23.298;2023-09-19T12:17:40;94785.44;;;28.55;35.67
35676;BME280;21790;42.668;23.298;2023-09-19T12:20:08;94783.91;;;28.61;35.25
35676;BME280;21790;42.668;23.298;2023-09-19T12:22:45;94777.22;;;28.66;35.22
35676;BME280;21790;42.668;23.298;2023-09-19T12:25:12;94771.44;;;28.82;35.25
35676;BME280;21790;42.668;23.298;2023-09-19T12:27:46;94769.84;;;28.39;35.61
35676;BME280;21790;42.668;23.298;2023-09-19T12:30:13;94771.13;;;28.45;35.62
35676;BME280;21790;42.668;23.298;2023-09-19T12:32:45;94762.13;;;28.56;35.30
35676;BME280;21790;42.668;23.298;2023-09-19T12:35:32;94759.91;;;28.80;35.15
35676;BME280;21790;42.668;23.298;2023-09-19T12:38:01;94759.47;;;28.83;34.99
35676;BME280;21790;42.668;23.298;2023-09-19T12:40:28;94758.63;;;28.73;35.37
35676;BME280;21790;42.668;23.298;2023-09-19T12:42:59;94754.78;;;28.78;35.42
35676;BME280;21790;42.668;23.298;2023-09-19T12:45:25;94746.78;;;28.84;35.23
35676;BME280;21790;42.668;23.298;2023-09-19T12:51:00;94749.84;;;28.79;35.25
35676;BME280;21790;42.668;23.298;2023-09-19T12:53:32;94756.53;;;28.74;35.70
35676;BME280;21790;42.668;23.298;2023-09-19T12:55:59;94753.06;;;28.50;35.66
35676;BME280;21790;42.668;23.298;2023-09-19T12:58:25;94747.94;;;28.81;35.81
35676;BME280;21790;42.668;23.298;2023-09-19T13:00:52;94747.69;;;28.87;35.49
35676;BME280;21790;42.668;23.298;2023-09-19T13:03:28;94735.16;;;28.90;35.09
35676;BME280;21790;42.668;23.298;2023-09-19T13:06:01;94735.50;;;28.94;35.38
35676;BME280;21790;42.668;23.298;2023-09-19T13:08:34;94726.53;;;28.97;35.49
35676;BME280;21790;42.668;23.298;2023-09-19T13:16:13;94736.19;;;28.52;36.24
35676;BME280;21790;42.668;23.298;2023-09-19T13:18:46;94725.16;;;28.56;36.38
35676;BME280;21790;42.668;23.298;2023-09-19T13:21:14;94724.25;;;28.79;35.57
35676;BME280;21790;42.668;23.298;2023-09-19T13:23:54;94719.41;;;28.89;35.83
35676;BME280;21790;42.668;23.298;2023-09-19T13:26:33;94708.22;;;28.91;35.59
35676;BME280;21790;42.668;23.298;2023-09-19T13:28:59;94706.94;;;28.84;35.94
35676;BME280;21790;42.668;23.298;2023-09-19T13:31:25;94698.41;;;28.84;36.07
35676;BME280;21790;42.668;23.298;2023-09-19T13:33:50;94707.22;;;28.96;36.02
35676;BME280;21790;42.668;23.298;2023-09-19T13:36:17;94708.72;;;28.97;35.55
35676;BME280;21790;42.668;23.298;2023-09-19T13:38:44;94704.38;;;28.96;35.75
35676;BME280;21790;42.668;23.298;2023-09-19T13:41:10;94710.13;;;28.39;37.02
35676;BME280;21790;42.668;23.298;2023-09-19T13:43:37;94708.53;;;28.78;36.36
35676;BME280;21790;42.668;23.298;2023-09-19T13:46:04;94698.47;;;28.77;36.45
35676;BME280;21790;42.668;23.298;2023-09-19T13:48:30;94700.50;;;28.84;36.28
35676;BME280;21790;42.668;23.298;2023-09-19T13:51:02;94706.88;;;28.92;36.08
35676;BME280;21790;42.668;23.298;2023-09-19T13:53:28;94700.50;;;28.84;36.16
35676;BME280;21790;42.668;23.298;2023-09-19T13:55:54;94698.25;;;28.82;36.00
35676;BME280;21790;42.668;23.298;2023-09-19T13:58:21;94702.78;;;28.85;35.88
35676;BME280;21790;42.668;23.298;2023-09-19T14:00:48;94697.91;;;28.78;36.21